sensor_id;sensor_type;location;lat;lon;timestamp;P1;durP1;ratioP1;P2;durP2;ratioP2
8861;SDS011;4799;50.996;4.754;2023-07-13T00:00:01;6.07;;;2.07;;
8861;SDS011;4799;50.996;4.754;2023-07-13T00:02:33;4.57;;;1.90;;
8861;SDS011;4799;50.996;4.754;2023-07-13T00:04:59;3.73;;;1.93;;
8861;SDS011;4799;50.996;4.754;2023-07-13T00:07:25;5.60;;;2.20;;
8861;SDS011;4799;50.996;4.754;2023-07-13T00:09:51;7.03;;;2.30;;
8861;SDS011;4799;50.996;4.754;2023-07-13T00:12:27;5.93;;;2.23;;
8861;SDS011;4799;50.996;4.754;2023-07-13T00:15:00;5.70;;;2.00;;
8861;SDS011;4799;50.996;4.754;2023-07-13T00:17:28;5.47;;;2.30;;
8861;SDS011;4799;50.996;4.754;2023-07-13T00:19:55;5.60;;;2.40;;
8861;SDS011;4799;50.996;4.754;2023-07-13T00:22:22;5.40;;;1.93;;
8861;SDS011;4799;50.996;4.754;2023-07-13T00:24:51;5.50;;;2.50;;
8861;SDS011;4799;50.996;4.754;2023-07-13T00:27:17;5.97;;;2.30;;
8861;SDS011;4799;50.996;4.754;2023-07-13T00:29:43;5.57;;;2.20;;
8861;SDS011;4799;50.996;4.754;2023-07-13T00:32:10;5.60;;;2.07;;
8861;SDS011;4799;50.996;4.754;2023-07-13T00:34:36;3.30;;;1.83;;
8861;SDS011;4799;50.996;4.754;2023-07-13T00:37:03;5.97;;;2.47;;
8861;SDS011;4799;50.996;4.754;2023-07-13T00:39:31;3.97;;;1.80;;
8861;SDS011;4799;50.996;4.754;2023-07-13T00:41:58;6.23;;;2.20;;
8861;SDS011;4799;50.996;4.754;2023-07-13T00:44:24;4.37;;;2.00;;
8861;SDS011;4799;50.996;4.754;2023-07-13T00:46:50;5.13;;;1.80;;
8861;SDS011;4799;50.996;4.754;2023-07-13T00:49:17;5.23;;;2.10;;
8861;SDS011;4799;50.996;4.754;2023-07-13T00:51:50;5.50;;;2.10;;
8861;SDS011;4799;50.996;4.754;2023-07-13T00:54:21;4.07;;;2.13;;
8861;SDS011;4799;50.996;4.754;2023-07-13T00:56:53;5.30;;;2.00;;
8861;SDS011;4799;50.996;4.754;2023-07-13T00:59:22;8.03;;;2.53;;
8861;SDS011;4799;50.996;4.754;2023-07-13T01:01:48;6.13;;;2.13;;
8861;SDS011;4799;50.996;4.754;2023-07-13T01:04:14;6.50;;;2.40;;
8861;SDS011;4799;50.996;4.754;2023-07-13T01:06:41;4.90;;;2.50;;
8861;SDS011;4799;50.996;4.754;2023-07-13T01:09:09;4.87;;;2.17;;
8861;SDS011;4799;50.996;4.754;2023-07-13T01:11:36;3.93;;;2.33;;
8861;SDS011;4799;50.996;4.754;2023-07-13T01:14:02;6.17;;;2.20;;
8861;SDS011;4799;50.996;4.754;2023-07-13T01:16:33;6.40;;;2.30;;
8861;SDS011;4799;50.996;4.754;2023-07-13T01:18:59;6.77;;;2.33;;
8861;SDS011;4799;50.996;4.754;2023-07-13T01:21:31;6.43;;;2.27;;
8861;SDS011;4799;50.996;4.754;2023-07-13T01:23:57;4.83;;;2.17;;
8861;SDS011;4799;50.996;4.754;2023-07-13T01:26:23;8.70;;;2.30;;
8861;SDS011;4799;50.996;4.754;2023-07-13T01:28:49;6.07;;;2.63;;
8861;SDS011;4799;50.996;4.754;2023-07-13T01:31:15;5.67;;;2.10;;
8861;SDS011;4799;50.996;4.754;2023-07-13T01:33:41;7.97;;;2.67;;
8861;SDS011;4799;50.996;4.754;2023-07-13T01:36:07;4.50;;;2.30;;
8861;SDS011;4799;50.996;4.754;2023-07-13T01:38:34;5.77;;;2.27;;
8861;SDS011;4799;50.996;4.754;2023-07-13T01:41:02;5.87;;;2.20;;
8861;SDS011;4799;50.996;4.754;2023-07-13T01:43:29;4.40;;;1.90;;
8861;SDS011;4799;50.996;4.754;2023-07-13T01:45:55;5.47;;;2.40;;
8861;SDS011;4799;50.996;4.754;2023-07-13T01:48:20;4.77;;;2.47;;
8861;SDS011;4799;50.996;4.754;2023-07-13T01:50:47;5.30;;;2.13;;
8861;SDS011;4799;50.996;4.754;2023-07-13T01:53:13;5.83;;;2.30;;
8861;SDS011;4799;50.996;4.754;2023-07-13T01:55:38;6.43;;;2.10;;
8861;SDS011;4799;50.996;4.754;2023-07-13T01:58:05;3.17;;;1.90;;
8861;SDS011;4799;50.996;4.754;2023-07-13T02:00:32;3.77;;;2.17;;
8861;SDS011;4799;50.996;4.754;2023-07-13T02:02:58;6.13;;;2.50;;
8861;SDS011;4799;50.996;4.754;2023-07-13T02:05:24;6.67;;;2.87;;
8861;SDS011;4799;50.996;4.754;2023-07-13T02:07:50;7.30;;;2.50;;
8861;SDS011;4799;50.996;4.754;2023-07-13T02:10:17;4.77;;;2.20;;
8861;SDS011;4799;50.996;4.754;2023-07-13T02:12:44;3.57;;;2.23;;
8861;SDS011;4799;50.996;4.754;2023-07-13T02:15:10;8.37;;;2.60;;
8861;SDS011;4799;50.996;4.754;2023-07-13T02:17:36;5.60;;;2.40;;
8861;SDS011;4799;50.996;4.754;2023-07-13T02:20:02;5.17;;;2.30;;
8861;SDS011;4799;50.996;4.754;2023-07-13T02:22:29;5.93;;;2.37;;
8861;SDS011;4799;50.996;4.754;2023-07-13T02:24:55;7.73;;;2.70;;
8861;SDS011;4799;50.996;4.754;2023-07-13T02:27:21;5.17;;;2.53;;
8861;SDS011;4799;50.996;4.754;2023-07-13T02:29:47;7.00;;;2.23;;
8861;SDS011;4799;50.996;4.754;2023-07-13T02:32:12;7.07;;;2.40;;
8861;SDS011;4799;50.996;4.754;2023-07-13T02:34:40;7.53;;;2.80;;
8861;SDS011;4799;50.996;4.754;2023-07-13T02:37:07;6.63;;;2.30;;
8861;SDS011;4799;50.996;4.754;2023-07-13T02:39:32;6.70;;;2.43;;
8861;SDS011;4799;50.996;4.754;2023-07-13T02:41:59;5.47;;;2.27;;
8861;SDS011;4799;50.996;4.754;2023-07-13T02:44:25;9.97;;;2.53;;
8861;SDS011;4799;50.996;4.754;2023-07-13T02:46:51;5.27;;;2.40;;
8861;SDS011;4799;50.996;4.754;2023-07-13T02:49:17;6.63;;;2.47;;
8861;SDS011;4799;50.996;4.754;2023-07-13T02:51:43;4.80;;;2.27;;
8861;SDS011;4799;50.996;4.754;2023-07-13T02:54:11;6.77;;;2.60;;
8861;SDS011;4799;50.996;4.754;2023-07-13T02:56:38;6.47;;;2.63;;
8861;SDS011;4799;50.996;4.754;2023-07-13T02:59:04;5.80;;;2.50;;
8861;SDS011;4799;50.996;4.754;2023-07-13T03:01:30;7.40;;;2.60;;
8861;SDS011;4799;50.996;4.754;2023-07-13T03:03:57;8.93;;;2.67;;
8861;SDS011;4799;50.996;4.754;2023-07-13T03:06:23;6.00;;;2.53;;
8861;SDS011;4799;50.996;4.754;2023-07-13T03:08:49;8.53;;;2.50;;
8861;SDS011;4799;50.996;4.754;2023-07-13T03:11:17;6.43;;;2.33;;
8861;SDS011;4799;50.996;4.754;2023-07-13T03:13:44;7.30;;;2.30;;
8861;SDS011;4799;50.996;4.754;2023-07-13T03:16:11;6.70;;;2.37;;
8861;SDS011;4799;50.996;4.754;2023-07-13T03:18:37;8.40;;;2.50;;
8861;SDS011;4799;50.996;4.754;2023-07-13T03:21:04;5.47;;;2.20;;
8861;SDS011;4799;50.996;4.754;2023-07-13T03:23:31;7.47;;;2.30;;
8861;SDS011;4799;50.996;4.754;2023-07-13T03:26:01;6.63;;;2.67;;
8861;SDS011;4799;50.996;4.754;2023-07-13T03:28:34;5.80;;;2.33;;
8861;SDS011;4799;50.996;4.754;2023-07-13T03:31:01;6.53;;;2.57;;
8861;SDS011;4799;50.996;4.754;2023-07-13T03:33:35;7.50;;;2.60;;
8861;SDS011;4799;50.996;4.754;2023-07-13T03:36:02;8.90;;;2.70;;
8861;SDS011;4799;50.996;4.754;2023-07-13T03:38:29;7.17;;;2.57;;
8861;SDS011;4799;50.996;4.754;2023-07-13T03:40:55;5.63;;;2.40;;
8861;SDS011;4799;50.996;4.754;2023-07-13T03:43:20;7.47;;;2.77;;
8861;SDS011;4799;50.996;4.754;2023-07-13T03:45:46;6.87;;;2.70;;
8861;SDS011;4799;50.996;4.754;2023-07-13T03:48:13;7.27;;;2.80;;
8861;SDS011;4799;50.996;4.754;2023-07-13T03:50:39;8.57;;;2.77;;
8861;SDS011;4799;50.996;4.754;2023-07-13T03:53:05;6.70;;;2.73;;
8861;SDS011;4799;50.996;4.754;2023-07-13T03:55:31;8.73;;;3.07;;
8861;SDS011;4799;50.996;4.754;2023-07-13T03:57:59;8.33;;;2.87;;
8861;SDS011;4799;50.996;4.754;2023-07-13T04:00:26;8.57;;;2.83;;
8861;SDS011;4799;50.996;4.754;2023-07-13T04:02:52;6.03;;;2.60;;
8861;SDS011;4799;50.996;4.754;2023-07-13T04:05:18;6.67;;;2.80;;
8861;SDS011;4799;50.996;4.754;2023-07-13T04:07:44;7.43;;;2.97;;
8861;SDS011;4799;50.996;4.754;2023-07-13T04:10:09;7.37;;;2.90;;
8861;SDS011;4799;50.996;4.754;2023-07-13T04:12:35;9.50;;;3.23;;
8861;SDS011;4799;50.996;4.754;2023-07-13T04:15:01;7.23;;;2.50;;
8861;SDS011;4799;50.996;4.754;2023-07-13T04:17:26;8.70;;;3.00;;
8861;SDS011;4799;50.996;4.754;2023-07-13T04:19:52;5.83;;;2.60;;
8861;SDS011;4799;50.996;4.754;2023-07-13T04:22:18;6.17;;;2.70;;
8861;SDS011;4799;50.996;4.754;2023-07-13T04:24:43;7.07;;;2.93;;
8861;SDS011;4799;50.996;4.754;2023-07-13T04:27:10;7.33;;;3.00;;
8861;SDS011;4799;50.996;4.754;2023-07-13T04:29:36;7.43;;;3.03;;
8861;SDS011;4799;50.996;4.754;2023-07-13T04:32:02;7.33;;;3.03;;
8861;SDS011;4799;50.996;4.754;2023-07-13T04:34:28;6.30;;;2.73;;
8861;SDS011;4799;50.996;4.754;2023-07-13T04:36:54;9.30;;;2.97;;
8861;SDS011;4799;50.996;4.754;2023-07-13T04:39:20;6.60;;;2.97;;
8861;SDS011;4799;50.996;4.754;2023-07-13T04:41:46;6.13;;;2.70;;
8861;SDS011;4799;50.996;4.754;2023-07-13T04:44:11;9.73;;;2.90;;
8861;SDS011;4799;50.996;4.754;2023-07-13T04:46:37;6.60;;;2.57;;
8861;SDS011;4799;50.996;4.754;2023-07-13T04:49:03;6.77;;;2.87;;
8861;SDS011;4799;50.996;4.754;2023-07-13T04:51:29;8.03;;;3.03;;
8861;SDS011;4799;50.996;4.754;2023-07-13T04:53:55;10.10;;;3.10;;
8861;SDS011;4799;50.996;4.754;2023-07-13T04:56:20;7.40;;;2.87;;
8861;SDS011;4799;50.996;4.754;2023-07-13T04:58:46;5.70;;;2.83;;
8861;SDS011;4799;50.996;4.754;2023-07-13T05:01:12;7.57;;;2.80;;
8861;SDS011;4799;50.996;4.754;2023-07-13T05:03:38;6.97;;;2.90;;
8861;SDS011;4799;50.996;4.754;2023-07-13T05:06:05;6.60;;;3.00;;
8861;SDS011;4799;50.996;4.754;2023-07-13T05:08:32;6.87;;;2.90;;
8861;SDS011;4799;50.996;4.754;2023-07-13T05:11:03;9.10;;;2.80;;
8861;SDS011;4799;50.996;4.754;2023-07-13T05:13:29;7.73;;;2.87;;
8861;SDS011;4799;50.996;4.754;2023-07-13T05:15:56;9.17;;;3.30;;
8861;SDS011;4799;50.996;4.754;2023-07-13T05:18:27;7.93;;;2.87;;
8861;SDS011;4799;50.996;4.754;2023-07-13T05:20:57;8.73;;;2.90;;
8861;SDS011;4799;50.996;4.754;2023-07-13T05:23:33;10.00;;;2.97;;
8861;SDS011;4799;50.996;4.754;2023-07-13T05:26:00;7.30;;;3.37;;
8861;SDS011;4799;50.996;4.754;2023-07-13T05:28:26;8.77;;;3.23;;
8861;SDS011;4799;50.996;4.754;2023-07-13T05:30:52;9.60;;;3.43;;
8861;SDS011;4799;50.996;4.754;2023-07-13T05:33:19;10.57;;;3.20;;
8861;SDS011;4799;50.996;4.754;2023-07-13T05:35:45;9.87;;;3.10;;
8861;SDS011;4799;50.996;4.754;2023-07-13T05:38:11;8.00;;;3.10;;
8861;SDS011;4799;50.996;4.754;2023-07-13T05:40:37;9.33;;;3.37;;
8861;SDS011;4799;50.996;4.754;2023-07-13T05:43:03;11.07;;;2.97;;
8861;SDS011;4799;50.996;4.754;2023-07-13T05:45:29;6.90;;;3.33;;
8861;SDS011;4799;50.996;4.754;2023-07-13T05:47:55;7.60;;;3.00;;
8861;SDS011;4799;50.996;4.754;2023-07-13T05:50:21;10.17;;;3.30;;
8861;SDS011;4799;50.996;4.754;2023-07-13T05:52:47;8.97;;;3.53;;
8861;SDS011;4799;50.996;4.754;2023-07-13T05:55:12;8.33;;;3.23;;
8861;SDS011;4799;50.996;4.754;2023-07-13T05:57:38;7.23;;;3.30;;
8861;SDS011;4799;50.996;4.754;2023-07-13T06:00:04;11.23;;;3.50;;
8861;SDS011;4799;50.996;4.754;2023-07-13T06:02:30;10.30;;;3.93;;
8861;SDS011;4799;50.996;4.754;2023-07-13T06:04:56;6.57;;;3.20;;
8861;SDS011;4799;50.996;4.754;2023-07-13T06:07:21;11.97;;;4.10;;
8861;SDS011;4799;50.996;4.754;2023-07-13T06:09:47;10.03;;;3.37;;
8861;SDS011;4799;50.996;4.754;2023-07-13T06:12:13;9.63;;;3.40;;
8861;SDS011;4799;50.996;4.754;2023-07-13T06:14:38;7.07;;;3.10;;
8861;SDS011;4799;50.996;4.754;2023-07-13T06:17:04;8.83;;;3.60;;
8861;SDS011;4799;50.996;4.754;2023-07-13T06:19:31;8.83;;;3.23;;
8861;SDS011;4799;50.996;4.754;2023-07-13T06:21:58;9.23;;;3.50;;
8861;SDS011;4799;50.996;4.754;2023-07-13T06:24:24;11.03;;;3.70;;
8861;SDS011;4799;50.996;4.754;2023-07-13T06:26:50;12.33;;;4.03;;
8861;SDS011;4799;50.996;4.754;2023-07-13T06:29:16;8.93;;;3.50;;
8861;SDS011;4799;50.996;4.754;2023-07-13T06:31:41;10.17;;;3.63;;
8861;SDS011;4799;50.996;4.754;2023-07-13T06:34:07;13.63;;;3.70;;
8861;SDS011;4799;50.996;4.754;2023-07-13T06:36:33;8.57;;;3.53;;
8861;SDS011;4799;50.996;4.754;2023-07-13T06:39:01;8.00;;;3.43;;
8861;SDS011;4799;50.996;4.754;2023-07-13T06:41:27;7.40;;;3.23;;
8861;SDS011;4799;50.996;4.754;2023-07-13T06:43:53;11.50;;;3.63;;
8861;SDS011;4799;50.996;4.754;2023-07-13T06:46:22;9.53;;;3.30;;
8861;SDS011;4799;50.996;4.754;2023-07-13T06:48:48;10.10;;;3.43;;
8861;SDS011;4799;50.996;4.754;2023-07-13T06:51:14;7.30;;;3.27;;
8861;SDS011;4799;50.996;4.754;2023-07-13T06:53:40;11.03;;;3.80;;
8861;SDS011;4799;50.996;4.754;2023-07-13T06:56:05;9.57;;;3.20;;
8861;SDS011;4799;50.996;4.754;2023-07-13T06:58:33;11.20;;;3.27;;
8861;SDS011;4799;50.996;4.754;2023-07-13T07:00:59;10.53;;;3.80;;
8861;SDS011;4799;50.996;4.754;2023-07-13T07:03:25;12.10;;;3.70;;
8861;SDS011;4799;50.996;4.754;2023-07-13T07:05:50;8.97;;;3.50;;
8861;SDS011;4799;50.996;4.754;2023-07-13T07:08:16;11.93;;;3.70;;
8861;SDS011;4799;50.996;4.754;2023-07-13T07:10:42;9.13;;;3.60;;
8861;SDS011;4799;50.996;4.754;2023-07-13T07:13:07;8.37;;;3.23;;
8861;SDS011;4799;50.996;4.754;2023-07-13T07:15:34;8.90;;;3.33;;
8861;SDS011;4799;50.996;4.754;2023-07-13T07:18:00;9.20;;;3.07;;
8861;SDS011;4799;50.996;4.754;2023-07-13T07:20:26;11.10;;;3.50;;
8861;SDS011;4799;50.996;4.754;2023-07-13T07:22:52;11.23;;;3.20;;
8861;SDS011;4799;50.996;4.754;2023-07-13T07:25:18;7.90;;;3.17;;
8861;SDS011;4799;50.996;4.754;2023-07-13T07:27:44;10.27;;;3.30;;
8861;SDS011;4799;50.996;4.754;2023-07-13T07:30:11;7.10;;;3.00;;
8861;SDS011;4799;50.996;4.754;2023-07-13T07:32:37;9.83;;;3.40;;
8861;SDS011;4799;50.996;4.754;2023-07-13T07:35:03;7.27;;;3.00;;
8861;SDS011;4799;50.996;4.754;2023-07-13T07:37:29;7.53;;;3.07;;
8861;SDS011;4799;50.996;4.754;2023-07-13T07:39:54;8.57;;;3.10;;
8861;SDS011;4799;50.996;4.754;2023-07-13T07:42:20;7.93;;;3.30;;
8861;SDS011;4799;50.996;4.754;2023-07-13T07:44:46;9.30;;;3.63;;
8861;SDS011;4799;50.996;4.754;2023-07-13T07:47:11;6.90;;;3.40;;
8861;SDS011;4799;50.996;4.754;2023-07-13T07:49:37;7.70;;;3.30;;
8861;SDS011;4799;50.996;4.754;2023-07-13T07:52:03;9.40;;;3.27;;
8861;SDS011;4799;50.996;4.754;2023-07-13T07:54:29;8.97;;;3.17;;
8861;SDS011;4799;50.996;4.754;2023-07-13T07:56:55;7.40;;;2.97;;
8861;SDS011;4799;50.996;4.754;2023-07-13T07:59:21;9.93;;;3.40;;
8861;SDS011;4799;50.996;4.754;2023-07-13T08:01:46;7.43;;;3.13;;
8861;SDS011;4799;50.996;4.754;2023-07-13T08:04:15;9.50;;;2.87;;
8861;SDS011;4799;50.996;4.754;2023-07-13T08:06:41;8.30;;;3.07;;
8861;SDS011;4799;50.996;4.754;2023-07-13T08:09:07;8.23;;;3.40;;
8861;SDS011;4799;50.996;4.754;2023-07-13T08:11:33;8.03;;;3.40;;
8861;SDS011;4799;50.996;4.754;2023-07-13T08:13:59;10.50;;;3.30;;
8861;SDS011;4799;50.996;4.754;2023-07-13T08:16:25;8.13;;;3.00;;
8861;SDS011;4799;50.996;4.754;2023-07-13T08:18:51;7.70;;;3.10;;
8861;SDS011;4799;50.996;4.754;2023-07-13T08:21:17;7.27;;;3.27;;
8861;SDS011;4799;50.996;4.754;2023-07-13T08:23:45;8.80;;;3.07;;
8861;SDS011;4799;50.996;4.754;2023-07-13T08:26:11;7.17;;;3.10;;
8861;SDS011;4799;50.996;4.754;2023-07-13T08:28:37;5.97;;;2.67;;
8861;SDS011;4799;50.996;4.754;2023-07-13T08:31:03;6.40;;;3.00;;
8861;SDS011;4799;50.996;4.754;2023-07-13T08:33:30;8.60;;;3.07;;
8861;SDS011;4799;50.996;4.754;2023-07-13T08:35:55;8.57;;;3.27;;
8861;SDS011;4799;50.996;4.754;2023-07-13T08:38:22;8.17;;;3.33;;
8861;SDS011;4799;50.996;4.754;2023-07-13T08:40:52;5.43;;;2.73;;
8861;SDS011;4799;50.996;4.754;2023-07-13T08:43:22;7.77;;;2.83;;
8861;SDS011;4799;50.996;4.754;2023-07-13T08:45:58;6.10;;;3.20;;
8861;SDS011;4799;50.996;4.754;2023-07-13T08:48:33;7.97;;;3.03;;
8861;SDS011;4799;50.996;4.754;2023-07-13T08:51:22;8.17;;;3.10;;
8861;SDS011;4799;50.996;4.754;2023-07-13T08:54:03;5.60;;;2.67;;
8861;SDS011;4799;50.996;4.754;2023-07-13T08:56:34;6.30;;;2.83;;
8861;SDS011;4799;50.996;4.754;2023-07-13T08:59:04;5.47;;;2.67;;
8861;SDS011;4799;50.996;4.754;2023-07-13T09:04:42;7.77;;;2.60;;
8861;SDS011;4799;50.996;4.754;2023-07-13T09:07:14;4.07;;;2.57;;
8861;SDS011;4799;50.996;4.754;2023-07-13T09:15:40;5.33;;;2.60;;
8861;SDS011;4799;50.996;4.754;2023-07-13T09:23:12;5.37;;;2.73;;
8861;SDS011;4799;50.996;4.754;2023-07-13T09:25:43;6.33;;;2.50;;
8861;SDS011;4799;50.996;4.754;2023-07-13T09:28:15;6.80;;;2.33;;
8861;SDS011;4799;50.996;4.754;2023-07-13T09:31:01;4.10;;;2.30;;
8861;SDS011;4799;50.996;4.754;2023-07-13T09:33:30;4.73;;;2.17;;
8861;SDS011;4799;50.996;4.754;2023-07-13T09:35:59;6.57;;;2.47;;
8861;SDS011;4799;50.996;4.754;2023-07-13T09:38:27;5.50;;;2.40;;
8861;SDS011;4799;50.996;4.754;2023-07-13T09:43:26;6.03;;;2.50;;
8861;SDS011;4799;50.996;4.754;2023-07-13T09:45:53;6.83;;;2.60;;
8861;SDS011;4799;50.996;4.754;2023-07-13T09:48:21;7.40;;;2.30;;
8861;SDS011;4799;50.996;4.754;2023-07-13T09:50:46;3.53;;;2.20;;
8861;SDS011;4799;50.996;4.754;2023-07-13T09:53:17;5.47;;;2.47;;
8861;SDS011;4799;50.996;4.754;2023-07-13T09:55:47;6.07;;;2.20;;
8861;SDS011;4799;50.996;4.754;2023-07-13T09:58:15;4.17;;;2.13;;
8861;SDS011;4799;50.996;4.754;2023-07-13T10:00:53;5.77;;;2.20;;
8861;SDS011;4799;50.996;4.754;2023-07-13T10:03:33;6.03;;;2.27;;
8861;SDS011;4799;50.996;4.754;2023-07-13T10:06:15;4.70;;;2.30;;
8861;SDS011;4799;50.996;4.754;2023-07-13T10:08:44;4.67;;;1.90;;
8861;SDS011;4799;50.996;4.754;2023-07-13T10:11:14;6.50;;;2.30;;
8861;SDS011;4799;50.996;4.754;2023-07-13T10:13:44;5.03;;;2.37;;
8861;SDS011;4799;50.996;4.754;2023-07-13T10:16:15;6.43;;;2.27;;
8861;SDS011;4799;50.996;4.754;2023-07-13T10:18:46;6.13;;;2.20;;
8861;SDS011;4799;50.996;4.754;2023-07-13T10:23:51;5.00;;;2.20;;
8861;SDS011;4799;50.996;4.754;2023-07-13T10:26:27;5.40;;;2.30;;
8861;SDS011;4799;50.996;4.754;2023-07-13T10:28:57;5.40;;;2.30;;
8861;SDS011;4799;50.996;4.754;2023-07-13T10:31:30;6.40;;;2.00;;
8861;SDS011;4799;50.996;4.754;2023-07-13T10:33:56;4.60;;;2.20;;
8861;SDS011;4799;50.996;4.754;2023-07-13T10:36:42;4.17;;;2.00;;
8861;SDS011;4799;50.996;4.754;2023-07-13T10:39:14;5.17;;;2.40;;
8861;SDS011;4799;50.996;4.754;2023-07-13T10:41:42;6.73;;;2.30;;
8861;SDS011;4799;50.996;4.754;2023-07-13T10:44:15;5.80;;;2.57;;
8861;SDS011;4799;50.996;4.754;2023-07-13T10:47:11;6.33;;;2.30;;
8861;SDS011;4799;50.996;4.754;2023-07-13T10:49:40;5.23;;;1.90;;
8861;SDS011;4799;50.996;4.754;2023-07-13T10:58:13;4.27;;;1.87;;
8861;SDS011;4799;50.996;4.754;2023-07-13T11:00:49;3.87;;;2.10;;
8861;SDS011;4799;50.996;4.754;2023-07-13T11:03:28;5.47;;;2.17;;
8861;SDS011;4799;50.996;4.754;2023-07-13T11:11:54;3.53;;;1.80;;
8861;SDS011;4799;50.996;4.754;2023-07-13T11:14:04;4.00;;;1.70;;
8861;SDS011;4799;50.996;4.754;2023-07-13T11:16:50;3.90;;;2.00;;
8861;SDS011;4799;50.996;4.754;2023-07-13T11:27:45;4.57;;;1.90;;
8861;SDS011;4799;50.996;4.754;2023-07-13T11:38:39;4.77;;;1.97;;
8861;SDS011;4799;50.996;4.754;2023-07-13T11:41:29;5.60;;;2.13;;
8861;SDS011;4799;50.996;4.754;2023-07-13T11:44:07;4.33;;;2.20;;
8861;SDS011;4799;50.996;4.754;2023-07-13T11:46:38;3.67;;;2.33;;
8861;SDS011;4799;50.996;4.754;2023-07-13T11:49:11;3.90;;;1.90;;
8861;SDS011;4799;50.996;4.754;2023-07-13T11:51:41;4.13;;;2.10;;
8861;SDS011;4799;50.996;4.754;2023-07-13T11:54:14;5.70;;;2.28;;
8861;SDS011;4799;50.996;4.754;2023-07-13T11:56:51;4.47;;;1.90;;
8861;SDS011;4799;50.996;4.754;2023-07-13T11:59:18;3.80;;;2.30;;
8861;SDS011;4799;50.996;4.754;2023-07-13T12:01:49;4.40;;;2.25;;
8861;SDS011;4799;50.996;4.754;2023-07-13T12:04:23;5.22;;;1.85;;
8861;SDS011;4799;50.996;4.754;2023-07-13T12:07:05;3.17;;;1.70;;
8861;SDS011;4799;50.996;4.754;2023-07-13T12:09:34;3.75;;;1.98;;
8861;SDS011;4799;50.996;4.754;2023-07-13T12:12:01;3.10;;;1.80;;
8861;SDS011;4799;50.996;4.754;2023-07-13T12:14:27;4.82;;;1.98;;
8861;SDS011;4799;50.996;4.754;2023-07-13T12:16:54;3.83;;;1.92;;
8861;SDS011;4799;50.996;4.754;2023-07-13T12:19:30;2.70;;;1.90;;
8861;SDS011;4799;50.996;4.754;2023-07-13T12:21:56;4.53;;;1.90;;
8861;SDS011;4799;50.996;4.754;2023-07-13T12:24:23;5.13;;;1.95;;
8861;SDS011;4799;50.996;4.754;2023-07-13T12:26:54;6.38;;;2.25;;
8861;SDS011;4799;50.996;4.754;2023-07-13T12:29:27;8.10;;;2.60;;
8861;SDS011;4799;50.996;4.754;2023-07-13T12:31:53;4.27;;;2.27;;
8861;SDS011;4799;50.996;4.754;2023-07-13T12:34:20;4.87;;;2.57;;
8861;SDS011;4799;50.996;4.754;2023-07-13T12:36:55;6.57;;;2.80;;
8861;SDS011;4799;50.996;4.754;2023-07-13T12:41:52;3.47;;;2.50;;
8861;SDS011;4799;50.996;4.754;2023-07-13T12:44:27;3.77;;;2.10;;
8861;SDS011;4799;50.996;4.754;2023-07-13T12:47:04;4.07;;;2.33;;
8861;SDS011;4799;50.996;4.754;2023-07-13T12:49:39;4.63;;;2.53;;
8861;SDS011;4799;50.996;4.754;2023-07-13T12:52:13;3.17;;;2.17;;
8861;SDS011;4799;50.996;4.754;2023-07-13T12:54:40;3.90;;;2.60;;
8861;SDS011;4799;50.996;4.754;2023-07-13T12:57:08;2.90;;;2.07;;
8861;SDS011;4799;50.996;4.754;2023-07-13T12:59:41;2.80;;;2.20;;
8861;SDS011;4799;50.996;4.754;2023-07-13T13:02:28;4.57;;;2.20;;
8861;SDS011;4799;50.996;4.754;2023-07-13T13:04:59;3.37;;;2.20;;
8861;SDS011;4799;50.996;4.754;2023-07-13T13:07:26;2.60;;;2.07;;
8861;SDS011;4799;50.996;4.754;2023-07-13T13:09:52;2.63;;;2.00;;
8861;SDS011;4799;50.996;4.754;2023-07-13T13:12:21;2.67;;;2.10;;
8861;SDS011;4799;50.996;4.754;2023-07-13T13:14:49;2.70;;;1.80;;
8861;SDS011;4799;50.996;4.754;2023-07-13T13:19:46;3.13;;;1.90;;
8861;SDS011;4799;50.996;4.754;2023-07-13T13:22:12;1.97;;;1.77;;
8861;SDS011;4799;50.996;4.754;2023-07-13T13:24:38;2.77;;;2.00;;
8861;SDS011;4799;50.996;4.754;2023-07-13T13:27:04;2.60;;;1.77;;
8861;SDS011;4799;50.996;4.754;2023-07-13T13:29:31;2.40;;;1.90;;
8861;SDS011;4799;50.996;4.754;2023-07-13T13:31:58;2.60;;;1.90;;
8861;SDS011;4799;50.996;4.754;2023-07-13T13:34:25;3.57;;;1.80;;
8861;SDS011;4799;50.996;4.754;2023-07-13T13:36:51;2.90;;;1.60;;
8861;SDS011;4799;50.996;4.754;2023-07-13T13:39:22;2.67;;;1.80;;
8861;SDS011;4799;50.996;4.754;2023-07-13T13:42:01;3.47;;;1.77;;
8861;SDS011;4799;50.996;4.754;2023-07-13T13:44:27;2.03;;;1.73;;
8861;SDS011;4799;50.996;4.754;2023-07-13T13:46:54;3.50;;;1.70;;
8861;SDS011;4799;50.996;4.754;2023-07-13T13:49:22;2.37;;;1.80;;
8861;SDS011;4799;50.996;4.754;2023-07-13T13:51:49;2.93;;;1.83;;
8861;SDS011;4799;50.996;4.754;2023-07-13T13:54:17;2.97;;;1.97;;
8861;SDS011;4799;50.996;4.754;2023-07-13T13:56:44;2.77;;;1.70;;
8861;SDS011;4799;50.996;4.754;2023-07-13T13:59:11;2.20;;;1.80;;
8861;SDS011;4799;50.996;4.754;2023-07-13T14:01:37;3.23;;;1.80;;
8861;SDS011;4799;50.996;4.754;2023-07-13T14:04:04;3.60;;;1.47;;
8861;SDS011;4799;50.996;4.754;2023-07-13T14:06:31;3.90;;;1.80;;
8861;SDS011;4799;50.996;4.754;2023-07-13T14:08:59;3.03;;;1.73;;
8861;SDS011;4799;50.996;4.754;2023-07-13T14:11:26;4.03;;;1.90;;
8861;SDS011;4799;50.996;4.754;2023-07-13T14:13:56;3.30;;;1.60;;
8861;SDS011;4799;50.996;4.754;2023-07-13T14:16:25;3.47;;;1.80;;
8861;SDS011;4799;50.996;4.754;2023-07-13T14:18:54;3.47;;;1.90;;
8861;SDS011;4799;50.996;4.754;2023-07-13T14:21:23;2.27;;;1.57;;
8861;SDS011;4799;50.996;4.754;2023-07-13T14:23:49;2.00;;;1.73;;
8861;SDS011;4799;50.996;4.754;2023-07-13T14:26:25;3.67;;;1.97;;
8861;SDS011;4799;50.996;4.754;2023-07-13T14:28:54;3.40;;;2.00;;
8861;SDS011;4799;50.996;4.754;2023-07-13T14:31:22;3.23;;;1.70;;
8861;SDS011;4799;50.996;4.754;2023-07-13T14:33:49;2.97;;;1.80;;
8861;SDS011;4799;50.996;4.754;2023-07-13T14:39:16;2.80;;;1.60;;
8861;SDS011;4799;50.996;4.754;2023-07-13T14:41:44;3.60;;;1.83;;
8861;SDS011;4799;50.996;4.754;2023-07-13T14:44:14;2.73;;;1.70;;
8861;SDS011;4799;50.996;4.754;2023-07-13T14:46:42;3.13;;;2.00;;
8861;SDS011;4799;50.996;4.754;2023-07-13T14:51:48;4.40;;;1.77;;
8861;SDS011;4799;50.996;4.754;2023-07-13T14:54:14;3.80;;;1.93;;
8861;SDS011;4799;50.996;4.754;2023-07-13T14:56:40;2.30;;;1.80;;
8861;SDS011;4799;50.996;4.754;2023-07-13T14:59:06;3.77;;;1.70;;
8861;SDS011;4799;50.996;4.754;2023-07-13T15:01:33;2.50;;;1.60;;
8861;SDS011;4799;50.996;4.754;2023-07-13T15:04:00;4.43;;;1.90;;
8861;SDS011;4799;50.996;4.754;2023-07-13T15:06:26;3.70;;;1.80;;
8861;SDS011;4799;50.996;4.754;2023-07-13T15:08:54;2.30;;;1.70;;
8861;SDS011;4799;50.996;4.754;2023-07-13T15:11:20;2.93;;;1.97;;
8861;SDS011;4799;50.996;4.754;2023-07-13T15:13:47;2.33;;;1.60;;
8861;SDS011;4799;50.996;4.754;2023-07-13T15:16:17;4.88;;;1.80;;
8861;SDS011;4799;50.996;4.754;2023-07-13T15:18:47;3.17;;;1.60;;
8861;SDS011;4799;50.996;4.754;2023-07-13T15:21:14;3.15;;;1.67;;
8861;SDS011;4799;50.996;4.754;2023-07-13T15:23:46;3.60;;;1.98;;
8861;SDS011;4799;50.996;4.754;2023-07-13T15:26:12;2.70;;;1.90;;
8861;SDS011;4799;50.996;4.754;2023-07-13T15:28:40;2.38;;;1.50;;
8861;SDS011;4799;50.996;4.754;2023-07-13T15:31:17;2.73;;;1.87;;
8861;SDS011;4799;50.996;4.754;2023-07-13T15:33:43;4.20;;;2.00;;
8861;SDS011;4799;50.996;4.754;2023-07-13T15:36:09;3.97;;;1.80;;
8861;SDS011;4799;50.996;4.754;2023-07-13T15:38:34;2.43;;;1.70;;
8861;SDS011;4799;50.996;4.754;2023-07-13T15:41:10;4.10;;;2.57;;
8861;SDS011;4799;50.996;4.754;2023-07-13T15:43:45;3.72;;;1.90;;
8861;SDS011;4799;50.996;4.754;2023-07-13T15:46:11;3.17;;;1.83;;
8861;SDS011;4799;50.996;4.754;2023-07-13T15:48:37;3.50;;;1.92;;
8861;SDS011;4799;50.996;4.754;2023-07-13T15:51:03;3.65;;;1.50;;
8861;SDS011;4799;50.996;4.754;2023-07-13T15:53:36;3.53;;;1.90;;
8861;SDS011;4799;50.996;4.754;2023-07-13T15:56:26;3.77;;;1.80;;
8861;SDS011;4799;50.996;4.754;2023-07-13T15:58:52;2.15;;;1.35;;
8861;SDS011;4799;50.996;4.754;2023-07-13T16:01:18;2.45;;;1.60;;
8861;SDS011;4799;50.996;4.754;2023-07-13T16:03:45;2.75;;;1.50;;
8861;SDS011;4799;50.996;4.754;2023-07-13T16:06:16;3.50;;;1.85;;
8861;SDS011;4799;50.996;4.754;2023-07-13T16:08:53;4.17;;;1.87;;
8861;SDS011;4799;50.996;4.754;2023-07-13T16:11:27;2.77;;;1.83;;
8861;SDS011;4799;50.996;4.754;2023-07-13T16:13:57;2.05;;;1.60;;
8861;SDS011;4799;50.996;4.754;2023-07-13T16:16:26;2.55;;;1.70;;
8861;SDS011;4799;50.996;4.754;2023-07-13T16:18:57;3.55;;;1.75;;